Time;durP1;ratioP1;P1;durP2;ratioP2;P2;SDS_P1;SDS_P2;PMS_P1;PMS_P2;Temp;Humidity;BMP_temperature;BMP_pressure;BME280_temperature;BME280_humidity;BME280_pressure;Samples;Min_cycle;Max_cycle;Signal;HPM_P1;HPM_P2
2023/08/02 00:00:30;;;;;;;10.48;3.17;;;;;;;;;;5017394;28;20077;-81
2023/08/02 00:02:56;;;;;;;10.15;3.60;;;;;;;;;;5014767;28;20130;-78
2023/08/02 00:05:22;;;;;;;9.27;2.83;;;;;;;;;;5033893;28;20037;-79
2023/08/02 00:07:48;;;;;;;11.55;3.38;;;;;;;;;;5032520;28;20050;-78
2023/08/02 00:10:14;;;;;;;6.35;2.67;;;;;;;;;;5035094;28;20124;-79
2023/08/02 00:12:40;;;;;;;11.23;3.08;;;;;;;;;;5037165;28;20037;-79
2023/08/02 00:15:07;;;;;;;9.35;3.28;;;;;;;;;;5034169;28;20128;-80
2023/08/02 00:17:33;;;;;;;10.85;3.60;;;;;;;;;;5036876;28;20507;-79
2023/08/02 00:19:59;;;;;;;8.13;3.00;;;;;;;;;;5016450;28;20054;-79
2023/08/02 00:22:25;;;;;;;12.52;2.97;;;;;;;;;;4997867;28;20049;-80
2023/08/02 00:24:51;;;;;;;10.25;3.03;;;;;;;;;;5018748;28;20989;-80
2023/08/02 00:27:17;;;;;;;10.77;3.25;;;;;;;;;;5003179;28;20041;-79
2023/08/02 00:29:43;;;;;;;10.25;3.60;;;;;;;;;;5017925;28;20041;-80
2023/08/02 00:32:09;;;;;;;8.60;2.92;;;;;;;;;;5034730;28;20033;-79
2023/08/02 00:34:35;;;;;;;10.52;3.15;;;;;;;;;;5034457;28;20487;-79
2023/08/02 00:37:02;;;;;;;10.35;3.00;;;;;;;;;;5032550;28;20038;-79
2023/08/02 00:39:28;;;;;;;12.23;3.28;;;;;;;;;;5034242;28;20480;-78
2023/08/02 00:41:54;;;;;;;6.93;3.00;;;;;;;;;;5016304;28;20037;-79
2023/08/02 00:44:20;;;;;;;13.88;3.35;;;;;;;;;;5017220;28;20041;-80
2023/08/02 00:46:46;;;;;;;10.57;2.88;;;;;;;;;;5017130;28;20120;-80
2023/08/02 00:49:12;;;;;;;10.35;2.92;;;;;;;;;;5037693;28;20049;-80
2023/08/02 00:51:38;;;;;;;11.18;3.28;;;;;;;;;;5016332;28;20089;-79
2023/08/02 00:54:05;;;;;;;11.43;3.28;;;;;;;;;;5036620;28;20063;-79
2023/08/02 00:56:32;;;;;;;12.10;3.38;;;;;;;;;;5039883;28;20057;-79
2023/08/02 00:58:58;;;;;;;11.40;3.28;;;;;;;;;;4997521;28;20054;-79
2023/08/02 01:01:25;;;;;;;10.13;3.20;;;;;;;;;;5040734;28;20091;-79
2023/08/02 01:03:51;;;;;;;8.00;3.03;;;;;;;;;;5040857;28;20495;-78
2023/08/02 01:06:21;;;;;;;12.18;3.47;;;;;;;;;;5043614;28;20049;-79
2023/08/02 01:08:50;;;;;;;10.63;3.90;;;;;;;;;;5025239;28;20065;-79
2023/08/02 01:11:18;;;;;;;11.73;3.35;;;;;;;;;;5041000;28;20094;-79
2023/08/02 01:13:48;;;;;;;9.85;2.80;;;;;;;;;;5039563;28;20045;-79
2023/08/02 01:16:14;;;;;;;10.38;3.75;;;;;;;;;;5042703;28;20041;-79
2023/08/02 01:18:41;;;;;;;10.07;3.30;;;;;;;;;;5041678;28;20041;-79
2023/08/02 01:21:07;;;;;;;13.20;3.50;;;;;;;;;;5000885;28;20061;-79
2023/08/02 01:23:33;;;;;;;10.90;3.55;;;;;;;;;;5036554;28;20053;-79
2023/08/02 01:26:00;;;;;;;11.00;3.88;;;;;;;;;;5034441;28;20033;-79
2023/08/02 01:28:27;;;;;;;11.20;3.65;;;;;;;;;;5034156;28;20041;-79
2023/08/02 01:30:54;;;;;;;12.27;3.90;;;;;;;;;;5014355;28;20055;-79
2023/08/02 01:33:21;;;;;;;10.02;3.25;;;;;;;;;;5033966;28;20048;-79
2023/08/02 01:35:47;;;;;;;11.48;3.97;;;;;;;;;;5032265;28;20076;-79
2023/08/02 01:38:13;;;;;;;12.05;4.05;;;;;;;;;;5032480;28;20434;-79
2023/08/02 01:40:39;;;;;;;8.70;3.78;;;;;;;;;;5028161;28;20042;-79
2023/08/02 01:43:05;;;;;;;13.70;3.70;;;;;;;;;;5028611;28;20041;-80
2023/08/02 01:45:32;;;;;;;12.02;3.58;;;;;;;;;;5014994;28;20407;-79
2023/08/02 01:47:58;;;;;;;13.50;3.38;;;;;;;;;;5031829;28;20131;-79
2023/08/02 01:50:24;;;;;;;17.67;4.07;;;;;;;;;;4996908;28;20179;-79
2023/08/02 01:52:50;;;;;;;12.98;3.65;;;;;;;;;;5038847;28;20582;-79
2023/08/02 01:55:18;;;;;;;13.52;4.07;;;;;;;;;;5016266;28;20057;-79
2023/08/02 01:57:44;;;;;;;12.18;3.95;;;;;;;;;;5033700;28;20136;-79
2023/08/02 02:00:10;;;;;;;15.30;3.70;;;;;;;;;;5033204;28;20042;-80
2023/08/02 02:02:36;;;;;;;12.55;4.28;;;;;;;;;;5033149;28;20049;-80
2023/08/02 02:05:03;;;;;;;15.85;4.07;;;;;;;;;;5015771;28;20096;-80
2023/08/02 02:07:29;;;;;;;16.92;4.53;;;;;;;;;;5033044;28;20056;-80
2023/08/02 02:09:55;;;;;;;13.50;4.22;;;;;;;;;;5013457;28;20053;-80
2023/08/02 02:12:21;;;;;;;20.95;5.38;;;;;;;;;;4997176;28;20059;-80
2023/08/02 02:14:47;;;;;;;12.68;4.80;;;;;;;;;;5035773;28;20071;-80
2023/08/02 02:17:13;;;;;;;15.55;4.40;;;;;;;;;;5018347;28;20069;-80
2023/08/02 02:19:39;;;;;;;13.43;4.28;;;;;;;;;;5040186;28;20399;-80
2023/08/02 02:22:05;;;;;;;17.33;4.10;;;;;;;;;;5024271;28;20564;-81
2023/08/02 02:24:31;;;;;;;15.27;4.47;;;;;;;;;;5020713;28;20125;-79
2023/08/02 02:26:57;;;;;;;12.10;4.50;;;;;;;;;;5034550;28;20064;-79
2023/08/02 02:29:24;;;;;;;16.77;4.50;;;;;;;;;;5041650;28;20049;-79
2023/08/02 02:31:50;;;;;;;17.48;4.85;;;;;;;;;;5024443;28;20041;-79
2023/08/02 02:34:16;;;;;;;15.75;4.43;;;;;;;;;;5024430;28;20531;-80
2023/08/02 02:36:44;;;;;;;13.38;4.45;;;;;;;;;;5042646;28;20068;-80
2023/08/02 02:39:10;;;;;;;16.38;4.72;;;;;;;;;;5023942;28;20049;-80
2023/08/02 02:41:36;;;;;;;13.55;4.93;;;;;;;;;;5035227;28;20380;-78
2023/08/02 02:44:02;;;;;;;15.52;4.72;;;;;;;;;;5040869;28;20088;-79
2023/08/02 02:46:28;;;;;;;15.70;4.70;;;;;;;;;;5039829;28;20403;-79
2023/08/02 02:48:55;;;;;;;14.98;4.80;;;;;;;;;;5039612;28;20111;-79
2023/08/02 02:51:21;;;;;;;16.95;4.97;;;;;;;;;;5040376;28;20049;-78
2023/08/02 02:53:47;;;;;;;16.38;4.95;;;;;;;;;;5025969;28;20152;-78
2023/08/02 02:56:13;;;;;;;17.88;4.85;;;;;;;;;;5024905;28;20057;-79
2023/08/02 02:58:40;;;;;;;21.52;4.85;;;;;;;;;;5044801;28;20056;-80
2023/08/02 03:01:06;;;;;;;17.58;4.95;;;;;;;;;;5027462;28;20051;-79
2023/08/02 03:03:32;;;;;;;18.95;5.18;;;;;;;;;;5043403;28;20049;-79
2023/08/02 03:05:58;;;;;;;15.00;5.28;;;;;;;;;;5029152;28;20049;-79
2023/08/02 03:08:24;;;;;;;19.70;5.05;;;;;;;;;;5023402;28;20071;-79
2023/08/02 03:10:50;;;;;;;16.40;5.25;;;;;;;;;;5020766;28;20049;-78
2023/08/02 03:13:16;;;;;;;18.67;5.20;;;;;;;;;;5037108;28;20123;-79
2023/08/02 03:15:42;;;;;;;16.33;5.43;;;;;;;;;;5037512;28;20406;-78
2023/08/02 03:18:08;;;;;;;18.08;5.72;;;;;;;;;;5043226;28;20045;-79
2023/08/02 03:20:34;;;;;;;15.07;5.00;;;;;;;;;;5037689;28;20041;-79
2023/08/02 03:23:00;;;;;;;16.25;5.03;;;;;;;;;;5034700;28;20037;-79
2023/08/02 03:25:26;;;;;;;16.70;5.15;;;;;;;;;;5040480;28;20502;-79
2023/08/02 03:27:53;;;;;;;18.45;5.60;;;;;;;;;;5044147;28;20115;-79
2023/08/02 03:30:19;;;;;;;15.45;5.05;;;;;;;;;;5043558;28;20101;-79
2023/08/02 03:32:45;;;;;;;13.52;5.00;;;;;;;;;;5044385;28;20064;-79
2023/08/02 03:35:11;;;;;;;14.30;4.93;;;;;;;;;;5042998;28;20041;-80
2023/08/02 03:37:37;;;;;;;16.60;4.93;;;;;;;;;;5039551;28;20049;-79
2023/08/02 03:40:03;;;;;;;17.30;5.07;;;;;;;;;;5042163;28;20049;-79
2023/08/02 03:42:29;;;;;;;14.60;4.90;;;;;;;;;;5024625;28;20105;-78
2023/08/02 03:44:55;;;;;;;16.25;5.13;;;;;;;;;;5036335;28;20124;-79
2023/08/02 03:47:21;;;;;;;16.95;5.15;;;;;;;;;;5037195;28;20862;-79
2023/08/02 03:49:47;;;;;;;18.70;5.78;;;;;;;;;;5036587;28;20050;-80
2023/08/02 03:52:14;;;;;;;17.25;5.95;;;;;;;;;;5038765;28;20037;-79
2023/08/02 03:54:40;;;;;;;17.65;6.00;;;;;;;;;;5037649;28;20056;-80
2023/08/02 03:57:07;;;;;;;16.98;6.55;;;;;;;;;;5019912;28;20062;-79
2023/08/02 03:59:33;;;;;;;16.35;6.43;;;;;;;;;;5020926;28;20045;-80
2023/08/02 04:01:59;;;;;;;17.67;5.95;;;;;;;;;;5022224;28;20038;-80
2023/08/02 04:04:25;;;;;;;17.80;6.53;;;;;;;;;;5037447;28;20060;-80
2023/08/02 04:06:51;;;;;;;15.65;5.90;;;;;;;;;;5038050;28;20064;-80
2023/08/02 04:09:17;;;;;;;15.27;6.03;;;;;;;;;;5019001;28;20041;-80
2023/08/02 04:11:44;;;;;;;15.18;6.05;;;;;;;;;;5038486;28;20154;-79
2023/08/02 04:14:10;;;;;;;16.60;6.30;;;;;;;;;;5037872;28;20060;-80
2023/08/02 04:16:36;;;;;;;17.95;6.10;;;;;;;;;;5019346;28;20164;-79
2023/08/02 04:19:02;;;;;;;14.40;5.97;;;;;;;;;;5037685;28;20119;-80
2023/08/02 04:21:28;;;;;;;12.85;5.32;;;;;;;;;;5039852;28;20049;-79
2023/08/02 04:23:54;;;;;;;16.38;6.20;;;;;;;;;;5037566;28;20048;-79
2023/08/02 04:26:20;;;;;;;16.08;6.28;;;;;;;;;;5034284;28;20048;-81
2023/08/02 04:28:46;;;;;;;16.88;6.20;;;;;;;;;;5035893;28;20053;-79
2023/08/02 04:31:13;;;;;;;16.77;6.50;;;;;;;;;;5034634;28;20044;-79
2023/08/02 04:33:39;;;;;;;17.92;5.82;;;;;;;;;;5036851;28;20447;-80
2023/08/02 04:36:06;;;;;;;17.55;6.18;;;;;;;;;;5036018;28;20037;-80
2023/08/02 04:38:32;;;;;;;15.43;6.10;;;;;;;;;;5036138;28;20045;-80
2023/08/02 04:40:58;;;;;;;13.52;5.57;;;;;;;;;;5018098;28;20049;-80
2023/08/02 04:43:24;;;;;;;14.02;6.03;;;;;;;;;;5035623;28;20109;-80
2023/08/02 04:45:50;;;;;;;14.90;6.15;;;;;;;;;;5038220;28;20045;-80
2023/08/02 04:48:17;;;;;;;14.60;5.85;;;;;;;;;;5021120;28;20045;-80
2023/08/02 04:50:43;;;;;;;14.63;6.03;;;;;;;;;;5041258;28;20045;-80
2023/08/02 04:53:09;;;;;;;13.52;5.95;;;;;;;;;;5008375;28;20053;-80
2023/08/02 04:55:43;;;;;;;13.88;5.80;;;;;;;;;;5003952;28;20179;-80
2023/08/02 04:58:09;;;;;;;13.35;5.57;;;;;;;;;;5023140;28;20052;-80
2023/08/02 05:00:35;;;;;;;17.02;6.53;;;;;;;;;;5038243;28;20048;-80
2023/08/02 05:03:01;;;;;;;13.07;6.28;;;;;;;;;;5036434;28;20045;-80
2023/08/02 05:05:27;;;;;;;14.35;5.93;;;;;;;;;;5036603;28;20075;-80
2023/08/02 05:07:53;;;;;;;16.17;6.60;;;;;;;;;;5037856;28;20075;-80
2023/08/02 05:10:19;;;;;;;14.38;6.47;;;;;;;;;;5038035;28;20072;-81
2023/08/02 05:12:45;;;;;;;14.13;6.18;;;;;;;;;;5035839;28;20041;-80
2023/08/02 05:15:12;;;;;;;16.38;6.40;;;;;;;;;;5035927;28;20114;-81
2023/08/02 05:17:38;;;;;;;15.52;6.60;;;;;;;;;;5035175;28;20049;-80
2023/08/02 05:20:04;;;;;;;14.93;5.88;;;;;;;;;;5038647;28;20033;-79
2023/08/02 05:22:33;;;;;;;14.40;6.20;;;;;;;;;;5025110;28;20050;-80
2023/08/02 05:24:59;;;;;;;16.83;6.03;;;;;;;;;;5042644;28;20049;-80
2023/08/02 05:27:25;;;;;;;14.00;5.68;;;;;;;;;;5041269;28;20088;-80
2023/08/02 05:29:54;;;;;;;13.63;5.78;;;;;;;;;;5042664;28;20053;-80
2023/08/02 05:32:20;;;;;;;13.15;6.05;;;;;;;;;;5042413;28;20064;-79
2023/08/02 05:34:46;;;;;;;16.75;5.93;;;;;;;;;;5021761;28;20038;-79
2023/08/02 05:37:12;;;;;;;13.15;6.00;;;;;;;;;;5032244;28;20060;-78
2023/08/02 05:39:38;;;;;;;15.18;5.63;;;;;;;;;;5016438;28;20049;-68
2023/08/02 05:42:05;;;;;;;10.15;5.18;;;;;;;;;;5033041;28;20439;-68
2023/08/02 05:44:31;;;;;;;13.77;6.05;;;;;;;;;;5033798;28;20090;-68
2023/08/02 05:46:57;;;;;;;15.70;5.35;;;;;;;;;;5035661;28;20092;-68
2023/08/02 05:49:23;;;;;;;11.02;5.47;;;;;;;;;;5037104;28;20333;-69
2023/08/02 05:51:49;;;;;;;14.25;5.80;;;;;;;;;;5034195;28;20048;-67
2023/08/02 05:54:16;;;;;;;12.70;5.20;;;;;;;;;;5041605;28;20049;-80
2023/08/02 05:56:42;;;;;;;12.88;4.95;;;;;;;;;;5050545;28;20395;-80
2023/08/02 05:59:09;;;;;;;16.40;5.95;;;;;;;;;;5050966;28;20076;-79
2023/08/02 06:01:35;;;;;;;10.48;4.38;;;;;;;;;;5049901;28;20129;-79
2023/08/02 06:04:01;;;;;;;10.20;4.60;;;;;;;;;;5051039;28;20105;-79
2023/08/02 06:06:27;;;;;;;10.95;4.78;;;;;;;;;;5046476;28;20121;-79
2023/08/02 06:08:53;;;;;;;13.77;5.28;;;;;;;;;;5037943;28;20156;-80
2023/08/02 06:11:19;;;;;;;11.65;4.80;;;;;;;;;;5046997;28;20095;-80
2023/08/02 06:13:45;;;;;;;13.45;4.75;;;;;;;;;;5049948;28;20052;-80
2023/08/02 06:16:11;;;;;;;13.63;5.43;;;;;;;;;;5050265;28;20132;-80
2023/08/02 06:18:37;;;;;;;11.13;4.38;;;;;;;;;;5046687;28;20049;-81
2023/08/02 06:21:03;;;;;;;12.50;4.70;;;;;;;;;;5045140;28;20049;-79
2023/08/02 06:23:29;;;;;;;12.52;4.75;;;;;;;;;;5049121;28;20046;-80
2023/08/02 06:25:55;;;;;;;10.18;4.13;;;;;;;;;;5041733;28;20376;-81
2023/08/02 06:28:22;;;;;;;11.25;4.60;;;;;;;;;;5037071;28;20141;-78
2023/08/02 06:30:48;;;;;;;12.70;4.57;;;;;;;;;;5036889;28;20488;-78
2023/08/02 06:33:14;;;;;;;14.43;4.78;;;;;;;;;;5032665;28;20124;-78
2023/08/02 06:35:40;;;;;;;10.70;4.65;;;;;;;;;;5037432;28;20045;-79
2023/08/02 06:38:07;;;;;;;10.05;3.85;;;;;;;;;;5044218;28;20104;-79
2023/08/02 06:40:33;;;;;;;12.32;4.10;;;;;;;;;;5045852;28;20045;-79
2023/08/02 06:42:59;;;;;;;11.43;4.50;;;;;;;;;;5027195;28;20125;-79
2023/08/02 06:45:25;;;;;;;12.13;4.20;;;;;;;;;;5027750;28;20037;-79
2023/08/02 06:47:51;;;;;;;10.77;4.32;;;;;;;;;;5023486;28;20120;-80
2023/08/02 06:50:17;;;;;;;11.70;4.03;;;;;;;;;;5027958;28;20044;-79
2023/08/02 06:52:43;;;;;;;12.55;4.03;;;;;;;;;;5044453;28;20057;-80
2023/08/02 06:55:09;;;;;;;11.00;4.22;;;;;;;;;;5046541;28;20041;-81
2023/08/02 06:57:36;;;;;;;11.82;4.10;;;;;;;;;;5028699;28;20053;-82
2023/08/02 07:00:02;;;;;;;10.70;3.45;;;;;;;;;;5044471;28;20409;-80
2023/08/02 07:02:28;;;;;;;12.13;3.90;;;;;;;;;;5032927;28;20096;-80
2023/08/02 07:04:54;;;;;;;10.65;3.72;;;;;;;;;;5030259;28;20093;-81
2023/08/02 07:07:21;;;;;;;11.60;4.05;;;;;;;;;;5039929;28;20048;-80
2023/08/02 07:09:50;;;;;;;8.23;3.38;;;;;;;;;;5039334;28;20049;-80
2023/08/02 07:12:16;;;;;;;8.95;3.63;;;;;;;;;;5039968;28;20101;-79
2023/08/02 07:14:42;;;;;;;11.07;3.70;;;;;;;;;;5036328;28;20041;-80
2023/08/02 07:17:08;;;;;;;14.75;4.05;;;;;;;;;;5036646;28;20054;-80
2023/08/02 07:19:34;;;;;;;9.55;3.97;;;;;;;;;;5033358;28;20051;-79
2023/08/02 07:22:00;;;;;;;13.57;4.00;;;;;;;;;;5038514;28;20050;-80
2023/08/02 07:24:27;;;;;;;11.55;4.13;;;;;;;;;;5046904;28;20711;-80
2023/08/02 07:26:53;;;;;;;11.75;4.00;;;;;;;;;;5048773;28;20056;-80
2023/08/02 07:29:19;;;;;;;10.93;3.83;;;;;;;;;;5041905;28;20048;-82
2023/08/02 07:31:45;;;;;;;11.93;4.30;;;;;;;;;;5045599;28;20053;-81
2023/08/02 07:34:11;;;;;;;11.02;4.13;;;;;;;;;;5047748;28;20072;-81
2023/08/02 07:36:37;;;;;;;12.40;3.95;;;;;;;;;;5033514;28;20113;-81
2023/08/02 07:39:03;;;;;;;10.07;4.10;;;;;;;;;;5031715;28;20057;-81
2023/08/02 07:41:29;;;;;;;10.73;4.18;;;;;;;;;;5047293;28;20045;-81
2023/08/02 07:43:55;;;;;;;10.75;4.20;;;;;;;;;;5038154;28;20045;-81
2023/08/02 07:46:22;;;;;;;10.35;3.60;;;;;;;;;;5048447;28;20037;-80
2023/08/02 07:48:51;;;;;;;10.63;3.45;;;;;;;;;;5048668;28;20064;-81
2023/08/02 07:51:17;;;;;;;11.93;3.70;;;;;;;;;;5031946;28;20037;-80
2023/08/02 07:53:43;;;;;;;11.77;3.83;;;;;;;;;;5049172;28;20082;-80
2023/08/02 07:56:10;;;;;;;18.83;4.20;;;;;;;;;;5047607;28;20362;-81
2023/08/02 07:58:36;;;;;;;15.25;4.07;;;;;;;;;;5046671;28;20049;-81
2023/08/02 08:01:08;;;;;;;11.57;3.97;;;;;;;;;;5047770;28;20057;-81
2023/08/02 08:03:35;;;;;;;11.23;3.42;;;;;;;;;;5038114;28;20049;-80
2023/08/02 08:06:01;;;;;;;11.13;3.30;;;;;;;;;;5034406;28;20562;-80
2023/08/02 08:08:27;;;;;;;11.40;4.32;;;;;;;;;;5007674;28;20049;-81
2023/08/02 08:10:53;;;;;;;11.43;3.85;;;;;;;;;;5042293;28;20113;-81
2023/08/02 08:13:19;;;;;;;13.68;4.10;;;;;;;;;;5044966;28;20427;-82
2023/08/02 08:15:47;;;;;;;14.68;4.25;;;;;;;;;;5025717;28;20041;-81
2023/08/02 08:18:13;;;;;;;11.50;3.80;;;;;;;;;;5034766;28;20090;-82
2023/08/02 08:20:39;;;;;;;10.65;3.80;;;;;;;;;;5047128;28;20071;-81
2023/08/02 08:23:05;;;;;;;10.55;3.67;;;;;;;;;;5025787;28;20046;-81
2023/08/02 08:25:32;;;;;;;9.35;3.50;;;;;;;;;;5045771;28;20042;-81
2023/08/02 08:27:58;;;;;;;12.02;4.47;;;;;;;;;;5044254;28;20045;-81
2023/08/02 08:30:24;;;;;;;13.32;4.00;;;;;;;;;;5041347;28;20529;-81
2023/08/02 08:32:50;;;;;;;15.63;4.20;;;;;;;;;;5041103;28;20105;-80
2023/08/02 08:35:16;;;;;;;12.23;3.80;;;;;;;;;;5041634;28;20052;-82
2023/08/02 08:37:42;;;;;;;16.02;4.68;;;;;;;;;;5027169;28;20045;-80
2023/08/02 08:40:13;;;;;;;11.57;4.28;;;;;;;;;;5042605;28;20049;-81
2023/08/02 08:42:39;;;;;;;;;;;;;;;;;;5044121;28;20057;-80
2023/08/02 08:45:06;;;;;;;10.30;4.03;;;;;;;;;;5024649;28;20011;-81
2023/08/02 08:47:32;;;;;;;12.13;4.47;;;;;;;;;;5021794;28;20084;-80
2023/08/02 08:50:02;;;;;;;9.85;4.32;;;;;;;;;;5042802;28;20454;-80
2023/08/02 08:52:30;;;;;;;13.18;4.63;;;;;;;;;;5040134;28;20056;-80
2023/08/02 08:54:56;;;;;;;12.80;5.20;;;;;;;;;;5030720;28;20813;-81
2023/08/02 08:57:22;;;;;;;12.07;5.18;;;;;;;;;;5040921;28;20124;-80
2023/08/02 08:59:48;;;;;;;10.68;4.95;;;;;;;;;;5024535;28;20068;-80
2023/08/02 09:02:15;;;;;;;15.45;4.95;;;;;;;;;;5042723;28;20045;-80
2023/08/02 09:04:41;;;;;;;15.40;5.60;;;;;;;;;;5040483;28;20081;-80
2023/08/02 09:07:07;;;;;;;17.85;5.70;;;;;;;;;;5043828;28;20033;-80
2023/08/02 09:09:35;;;;;;;13.07;5.32;;;;;;;;;;5045535;28;20076;-80
2023/08/02 09:12:02;;;;;;;11.88;4.82;;;;;;;;;;5045587;28;20444;-81
2023/08/02 09:14:28;;;;;;;12.48;5.53;;;;;;;;;;5042931;28;20056;-80
2023/08/02 09:16:57;;;;;;;13.30;5.65;;;;;;;;;;5043519;28;20041;-80
2023/08/02 09:19:24;;;;;;;11.85;4.95;;;;;;;;;;5044040;28;20072;-80
2023/08/02 09:22:07;;;;;;;10.90;5.20;;;;;;;;;;5026774;28;20054;-80
2023/08/02 09:24:34;;;;;;;11.35;4.95;;;;;;;;;;5042358;28;20057;-80
2023/08/02 09:27:01;;;;;;;12.95;4.93;;;;;;;;;;5025991;28;20064;-80
2023/08/02 09:29:41;;;;;;;10.95;5.25;;;;;;;;;;5024734;28;20037;-80
2023/08/02 09:32:08;;;;;;;13.07;5.43;;;;;;;;;;5042745;28;20387;-80
2023/08/02 09:34:52;;;;;;;12.40;5.63;;;;;;;;;;5026864;28;20064;-81
2023/08/02 09:37:28;;;;;;;14.10;5.55;;;;;;;;;;5043640;28;20041;-81
2023/08/02 09:39:54;;;;;;;12.48;5.53;;;;;;;;;;5038749;28;20188;-82
2023/08/02 09:42:28;;;;;;;11.27;5.60;;;;;;;;;;5041423;28;20038;-81
2023/08/02 09:44:55;;;;;;;14.15;5.45;;;;;;;;;;5041873;28;20061;-81
2023/08/02 09:47:21;;;;;;;10.73;4.93;;;;;;;;;;5041360;28;20037;-81
2023/08/02 09:50:02;;;;;;;9.05;4.65;;;;;;;;;;5039050;28;20153;-79
2023/08/02 09:52:28;;;;;;;8.68;4.40;;;;;;;;;;5038368;28;20556;-80
2023/08/02 09:54:54;;;;;;;10.75;5.00;;;;;;;;;;5004624;28;20045;-79
2023/08/02 09:57:26;;;;;;;8.65;4.40;;;;;;;;;;5039895;28;20061;-80
2023/08/02 09:59:58;;;;;;;11.27;4.78;;;;;;;;;;5021856;28;20046;-81
2023/08/02 10:02:25;;;;;;;9.98;4.75;;;;;;;;;;5042914;28;20048;-81
2023/08/02 10:04:56;;;;;;;9.70;5.13;;;;;;;;;;5042732;28;20053;-81
2023/08/02 10:07:23;;;;;;;8.55;4.75;;;;;;;;;;5040486;28;20080;-81
2023/08/02 10:09:49;;;;;;;7.03;4.20;;;;;;;;;;5037555;28;20052;-80
2023/08/02 10:12:16;;;;;;;11.63;4.28;;;;;;;;;;5041842;28;20041;-82
2023/08/02 10:14:42;;;;;;;9.65;4.38;;;;;;;;;;5044862;28;20052;-82
2023/08/02 10:17:10;;;;;;;8.05;4.15;;;;;;;;;;5046742;28;20038;-81
2023/08/02 10:19:36;;;;;;;7.43;3.90;;;;;;;;;;5043433;28;20045;-81
2023/08/02 10:22:06;;;;;;;8.77;4.60;;;;;;;;;;5042753;28;20058;-84
2023/08/02 10:24:32;;;;;;;8.60;4.25;;;;;;;;;;5026418;28;20072;-82
2023/08/02 10:27:01;;;;;;;7.63;4.45;;;;;;;;;;5041034;28;20109;-80
2023/08/02 10:29:28;;;;;;;8.70;3.55;;;;;;;;;;5010341;28;20097;-80
2023/08/02 10:31:55;;;;;;;10.98;4.20;;;;;;;;;;5048349;28;20372;-80
2023/08/02 10:34:36;;;;;;;34.00;7.68;;;;;;;;;;5011851;28;20037;-80
2023/08/02 10:37:02;;;;;;;;;;;;;;;;;;5047217;28;20050;-81
2023/08/02 10:39:43;;;;;;;9.00;3.13;;;;;;;;;;5048017;28;19948;-80
2023/08/02 10:42:09;;;;;;;17.00;4.18;;;;;;;;;;5043966;28;20067;-81
2023/08/02 10:44:35;;;;;;;5.90;2.85;;;;;;;;;;5042931;28;20052;-80
2023/08/02 10:47:20;;;;;;;5.95;2.60;;;;;;;;;;5039954;28;20056;-80
2023/08/02 10:49:46;;;;;;;5.32;2.30;;;;;;;;;;5047074;28;20049;-82
2023/08/02 10:52:32;;;;;;;5.55;2.78;;;;;;;;;;5044685;28;20109;-82
2023/08/02 10:55:19;;;;;;;5.43;2.58;;;;;;;;;;5044008;28;20073;-81
2023/08/02 10:57:57;;;;;;;4.63;2.10;;;;;;;;;;5044665;28;20081;-81
2023/08/02 11:00:25;;;;;;;4.72;2.00;;;;;;;;;;5044775;28;20056;-81
2023/08/02 11:02:52;;;;;;;4.57;2.00;;;;;;;;;;5025195;28;20071;-81
2023/08/02 11:05:37;;;;;;;10.95;2.67;;;;;;;;;;5027544;28;20097;-81
2023/08/02 11:08:04;;;;;;;5.47;1.98;;;;;;;;;;5042872;28;20081;-83
2023/08/02 11:10:30;;;;;;;3.88;1.70;;;;;;;;;;5048154;28;20049;-80
2023/08/02 11:12:57;;;;;;;3.42;1.75;;;;;;;;;;5046487;28;20045;-81
2023/08/02 11:15:23;;;;;;;4.82;2.10;;;;;;;;;;5035910;28;20061;-81
2023/08/02 11:17:59;;;;;;;4.20;1.88;;;;;;;;;;5029979;28;20048;-82
2023/08/02 11:20:27;;;;;;;3.58;1.40;;;;;;;;;;5029355;28;20045;-81
2023/08/02 11:22:53;;;;;;;3.25;1.40;;;;;;;;;;5028228;28;20049;-81
2023/08/02 11:25:22;;;;;;;3.25;1.60;;;;;;;;;;5047020;28;20143;-81
2023/08/02 11:27:59;;;;;;;3.47;1.70;;;;;;;;;;5045620;28;20042;-82
2023/08/02 11:30:25;;;;;;;3.10;1.35;;;;;;;;;;5047444;28;20222;-82
2023/08/02 11:32:52;;;;;;;3.47;1.40;;;;;;;;;;5046965;28;20060;-82
2023/08/02 11:35:18;;;;;;;2.50;1.00;;;;;;;;;;5029799;28;20310;-83
2023/08/02 11:37:45;;;;;;;2.70;1.20;;;;;;;;;;5045241;28;20041;-83
2023/08/02 11:40:11;;;;;;;1.95;1.00;;;;;;;;;;5042987;28;20053;-82
2023/08/02 11:42:48;;;;;;;3.03;0.88;;;;;;;;;;5048905;28;20049;-80
2023/08/02 11:45:14;;;;;;;2.10;1.00;;;;;;;;;;5048120;28;20069;-81
2023/08/02 11:47:41;;;;;;;2.15;0.90;;;;;;;;;;5030719;28;20120;-81
2023/08/02 11:50:07;;;;;;;2.45;1.10;;;;;;;;;;5046990;28;20048;-82
2023/08/02 11:52:33;;;;;;;4.57;1.00;;;;;;;;;;5047563;28;20148;-80
2023/08/02 11:55:00;;;;;;;3.40;1.10;;;;;;;;;;5050770;28;20111;-81
2023/08/02 11:57:27;;;;;;;2.83;1.15;;;;;;;;;;5031199;28;20060;-81
2023/08/02 11:59:56;;;;;;;3.00;1.20;;;;;;;;;;5039831;28;20052;-80
2023/08/02 12:02:29;;;;;;;3.33;1.20;;;;;;;;;;5049915;28;20053;-81
2023/08/02 12:04:56;;;;;;;2.97;1.20;;;;;;;;;;5027067;28;20038;-82
2023/08/02 12:07:26;;;;;;;2.35;1.00;;;;;;;;;;5047355;28;20037;-81
2023/08/02 12:09:52;;;;;;;3.67;1.10;;;;;;;;;;5049304;28;20041;-80
2023/08/02 12:12:18;;;;;;;2.63;1.10;;;;;;;;;;5045182;28;20037;-80
2023/08/02 12:14:44;;;;;;;3.60;1.30;;;;;;;;;;5026574;28;20547;-78
2023/08/02 12:17:20;;;;;;;4.03;1.17;;;;;;;;;;5035404;28;20045;-77
2023/08/02 12:19:47;;;;;;;3.85;1.17;;;;;;;;;;5034435;28;20048;-78
2023/08/02 12:22:13;;;;;;;3.70;1.10;;;;;;;;;;5037644;28;20045;-79
2023/08/02 12:24:39;;;;;;;3.30;1.40;;;;;;;;;;5035480;28;20053;-78
2023/08/02 12:27:13;;;;;;;2.97;1.30;;;;;;;;;;5036351;28;20130;-79
2023/08/02 12:29:39;;;;;;;4.25;1.30;;;;;;;;;;5039332;28;20045;-78
2023/08/02 12:32:05;;;;;;;2.67;1.25;;;;;;;;;;5038074;28;20122;-77
2023/08/02 12:34:31;;;;;;;2.47;1.08;;;;;;;;;;5036703;28;20128;-78
2023/08/02 12:36:59;;;;;;;3.05;1.40;;;;;;;;;;5037988;28;20037;-79
2023/08/02 12:39:25;;;;;;;3.20;1.40;;;;;;;;;;5045360;28;20077;-78
2023/08/02 12:41:51;;;;;;;3.78;1.40;;;;;;;;;;5042267;28;20065;-79
2023/08/02 12:44:17;;;;;;;4.63;1.58;;;;;;;;;;5046412;28;20041;-79
2023/08/02 12:46:43;;;;;;;3.90;1.75;;;;;;;;;;5043451;28;20037;-79
2023/08/02 12:49:09;;;;;;;2.67;1.50;;;;;;;;;;5044280;28;20128;-80
2023/08/02 12:51:38;;;;;;;4.38;1.80;;;;;;;;;;5042322;28;20120;-79
2023/08/02 12:54:05;;;;;;;4.43;1.65;;;;;;;;;;5040975;28;20096;-81
2023/08/02 12:56:32;;;;;;;3.78;1.80;;;;;;;;;;5040195;28;20049;-79
2023/08/02 12:58:58;;;;;;;3.42;2.00;;;;;;;;;;5021156;28;20056;-78
2023/08/02 13:01:25;;;;;;;3.17;1.73;;;;;;;;;;5040239;28;20068;-79
2023/08/02 13:03:51;;;;;;;4.85;2.10;;;;;;;;;;5029909;28;20135;-78
2023/08/02 13:06:17;;;;;;;4.82;1.85;;;;;;;;;;5035811;28;20184;-80
2023/08/02 13:08:43;;;;;;;3.97;2.63;;;;;;;;;;5036209;28;20119;-78
2023/08/02 13:11:09;;;;;;;5.93;2.47;;;;;;;;;;5042672;28;20467;-80
2023/08/02 13:13:35;;;;;;;4.15;2.17;;;;;;;;;;5036088;28;20501;-78
2023/08/02 13:16:01;;;;;;;4.57;1.90;;;;;;;;;;5037221;28;20527;-82
2023/08/02 13:18:27;;;;;;;6.68;2.85;;;;;;;;;;5035257;28;20527;-80
2023/08/02 13:20:53;;;;;;;5.53;2.20;;;;;;;;;;5029473;28;20187;-68
2023/08/02 13:23:19;;;;;;;7.72;3.58;;;;;;;;;;5021638;28;20048;-68
2023/08/02 13:25:45;;;;;;;4.28;2.08;;;;;;;;;;5028747;28;20045;-75
2023/08/02 13:28:12;;;;;;;6.72;2.55;;;;;;;;;;5028498;28;20503;-77
2023/08/02 13:30:38;;;;;;;4.50;2.30;;;;;;;;;;5032011;28;20057;-76
2023/08/02 13:33:04;;;;;;;3.90;2.00;;;;;;;;;;5030571;28;20041;-75
2023/08/02 13:35:30;;;;;;;7.22;2.78;;;;;;;;;;5031570;28;20056;-76
2023/08/02 13:37:57;;;;;;;9.27;2.90;;;;;;;;;;5022979;28;20042;-76
2023/08/02 13:40:24;;;;;;;4.45;2.30;;;;;;;;;;5031631;28;20046;-76
2023/08/02 13:42:50;;;;;;;3.60;2.10;;;;;;;;;;5027235;28;20068;-77
2023/08/02 13:45:16;;;;;;;6.03;2.30;;;;;;;;;;5026781;28;20088;-78
2023/08/02 13:47:42;;;;;;;4.57;2.60;;;;;;;;;;5026082;28;20052;-77
2023/08/02 13:50:08;;;;;;;4.30;2.22;;;;;;;;;;5030948;28;20084;-76
2023/08/02 13:52:34;;;;;;;3.92;2.10;;;;;;;;;;5028966;28;20037;-78
2023/08/02 13:55:01;;;;;;;4.13;2.50;;;;;;;;;;5032979;28;20048;-77
2023/08/02 13:57:27;;;;;;;4.47;2.63;;;;;;;;;;5030134;28;20475;-76
2023/08/02 13:59:53;;;;;;;4.72;2.45;;;;;;;;;;5030782;28;20053;-75
2023/08/02 14:02:19;;;;;;;4.05;2.38;;;;;;;;;;5032231;28;20050;-77
2023/08/02 14:04:45;;;;;;;4.07;2.30;;;;;;;;;;5034466;28;20042;-77
2023/08/02 14:07:11;;;;;;;5.20;2.80;;;;;;;;;;5036088;28;20052;-78
2023/08/02 14:09:40;;;;;;;5.72;2.65;;;;;;;;;;5035922;28;20057;-77
2023/08/02 14:12:07;;;;;;;6.85;2.50;;;;;;;;;;5016780;28;20103;-76
2023/08/02 14:14:33;;;;;;;7.05;2.88;;;;;;;;;;5026758;28;20042;-76
2023/08/02 14:16:59;;;;;;;6.70;3.60;;;;;;;;;;5008333;28;20400;-77
2023/08/02 14:19:25;;;;;;;13.15;4.18;;;;;;;;;;5029690;28;20049;-76
2023/08/02 14:21:51;;;;;;;5.43;2.65;;;;;;;;;;5037363;28;20458;-78
2023/08/02 14:24:17;;;;;;;6.60;1.30;;;;;;;;;;5028450;28;20058;-78
2023/08/02 14:26:43;;;;;;;6.70;1.65;;;;;;;;;;5019394;28;20053;-77
2023/08/02 14:29:09;;;;;;;5.88;1.70;;;;;;;;;;5033930;28;20053;-76
2023/08/02 14:31:35;;;;;;;4.30;1.55;;;;;;;;;;5033313;28;20037;-77
2023/08/02 14:34:01;;;;;;;6.72;1.70;;;;;;;;;;5029450;28;20053;-77